createdAt,value
2018-03-06T00:01:53.784Z,65.27
2018-03-06T00:04:21.262Z,59.23
2018-03-06T00:06:49.523Z,65.90
2018-03-06T00:09:17.006Z,67.13
2018-03-06T00:11:45.237Z,67.13
2018-03-06T00:14:12.711Z,57.40
2018-03-06T00:16:40.172Z,67.70
2018-03-06T00:19:07.650Z,56.90
2018-03-06T00:21:35.907Z,58.87
2018-03-06T00:24:03.444Z,59.57
2018-03-06T00:26:30.904Z,52.03
2018-03-06T00:28:58.371Z,61.03
2018-03-06T00:31:25.860Z,62.30
2018-03-06T00:33:54.106Z,56.57
2018-03-06T00:36:21.591Z,63.47
2018-03-06T00:38:49.820Z,56.50
2018-03-06T00:41:17.307Z,59.53
2018-03-06T00:43:44.764Z,63.97
2018-03-06T00:46:12.239Z,62.33
2018-03-06T00:48:40.459Z,63.30
2018-03-06T00:51:07.976Z,60.50
2018-03-06T00:53:35.440Z,58.87
2018-03-06T00:56:02.890Z,60.00
2018-03-06T00:58:30.368Z,62.93
2018-03-06T01:00:57.856Z,63.10
2018-03-06T01:03:25.337Z,61.53
2018-03-06T01:05:53.560Z,63.33
2018-03-06T01:08:21.094Z,59.37
2018-03-06T01:10:48.526Z,59.97
2018-03-06T01:13:15.999Z,63.17
2018-03-06T01:15:43.477Z,59.07
2018-03-06T01:18:10.960Z,59.47
2018-03-06T01:20:38.416Z,65.60
2018-03-06T01:23:05.883Z,57.37
2018-03-06T01:25:33.397Z,59.30
2018-03-06T01:28:00.799Z,69.30
2018-03-06T01:30:28.288Z,56.00
2018-03-06T01:32:56.536Z,64.13
2018-03-06T01:35:24.072Z,61.00
2018-03-06T01:37:51.521Z,53.53
2018-03-06T01:40:18.999Z,60.13
2018-03-06T01:42:46.439Z,58.63
2018-03-06T01:45:13.919Z,55.77
2018-03-06T01:47:41.371Z,58.73
2018-03-06T01:50:08.850Z,57.83
2018-03-06T01:52:37.071Z,61.10
2018-03-06T01:55:04.570Z,62.00
2018-03-06T01:57:32.036Z,60.43
2018-03-06T02:00:00.271Z,60.47
2018-03-06T02:02:27.710Z,69.90
2018-03-06T02:04:55.160Z,60.40
2018-03-06T02:07:22.648Z,63.53
2018-03-06T02:09:50.104Z,57.17
2018-03-06T02:12:17.584Z,56.90
2018-03-06T02:14:45.046Z,53.87
2018-03-06T02:17:12.501Z,53.10
2018-03-06T02:19:40.717Z,56.07
2018-03-06T02:22:08.200Z,57.80
2018-03-06T02:24:35.675Z,54.83
2018-03-06T02:27:03.984Z,54.87
2018-03-06T02:29:31.567Z,56.87
2018-03-06T02:31:59.062Z,51.80
2018-03-06T02:34:26.527Z,50.93
2018-03-06T02:36:53.975Z,57.73
2018-03-06T02:39:21.451Z,59.30
2018-03-06T02:41:49.668Z,48.97
2018-03-06T02:44:17.140Z,56.60
2018-03-06T02:46:44.614Z,60.20
2018-03-06T02:49:12.064Z,53.60
2018-03-06T02:51:39.546Z,57.37
2018-03-06T02:54:06.987Z,59.83
2018-03-06T02:56:34.462Z,57.60
2018-03-06T02:59:02.710Z,59.63
2018-03-06T03:01:30.183Z,63.77
2018-03-06T03:03:57.628Z,62.17
2018-03-06T03:06:25.080Z,55.73
2018-03-06T03:08:52.555Z,60.60
2018-03-06T03:11:20.003Z,66.97
2018-03-06T03:13:47.476Z,64.07
2018-03-06T03:16:15.743Z,62.30
2018-03-06T03:18:43.220Z,65.50
2018-03-06T03:21:11.440Z,60.73
2018-03-06T03:23:38.927Z,66.30
2018-03-06T03:26:06.388Z,55.80
2018-03-06T03:28:33.848Z,66.67
2018-03-06T03:31:02.086Z,70.87
2018-03-06T03:33:29.564Z,65.80
2018-03-06T03:35:57.005Z,67.60
2018-03-06T03:38:24.476Z,69.80
2018-03-06T03:40:51.944Z,68.10
2018-03-06T03:43:20.169Z,72.17
2018-03-06T03:45:47.655Z,71.80
2018-03-06T03:48:15.102Z,73.50
2018-03-06T03:50:42.609Z,70.50
2018-03-06T03:53:10.835Z,77.23
2018-03-06T03:55:38.296Z,73.20
2018-03-06T03:58:05.776Z,74.97
2018-03-06T04:00:33.987Z,65.47
2018-03-06T04:03:01.464Z,81.63
2018-03-06T04:05:28.966Z,80.50
2018-03-06T04:07:56.401Z,82.03
2018-03-06T04:10:23.866Z,84.27
2018-03-06T04:12:51.340Z,82.30
2018-03-06T04:15:19.564Z,77.10
2018-03-06T04:17:47.066Z,81.17
2018-03-06T04:20:14.518Z,77.53
2018-03-06T04:22:42.739Z,77.50
2018-03-06T04:25:10.211Z,79.70
2018-03-06T04:27:37.659Z,72.50
2018-03-06T04:30:05.123Z,80.57
2018-03-06T04:32:32.587Z,81.27
2018-03-06T04:35:00.095Z,64.23
2018-03-06T04:37:27.555Z,77.57
2018-03-06T04:39:55.006Z,75.17
2018-03-06T04:42:22.479Z,74.87
2018-03-06T04:44:49.931Z,78.53
2018-03-06T04:47:17.408Z,77.47
2018-03-06T04:49:44.859Z,78.80
2018-03-06T04:52:12.358Z,74.87
2018-03-06T04:54:40.375Z,91.00
2018-03-06T04:57:07.824Z,79.07
2018-03-06T04:59:35.295Z,83.40
2018-03-06T05:02:02.750Z,82.93
2018-03-06T05:04:30.219Z,84.03
2018-03-06T05:06:57.676Z,78.03
2018-03-06T05:09:25.151Z,68.57
2018-03-06T05:11:52.620Z,70.57
2018-03-06T05:14:20.110Z,71.13
2018-03-06T05:16:48.329Z,70.47
2018-03-06T05:19:15.812Z,70.37
2018-03-06T05:21:43.251Z,71.73
2018-03-06T05:24:10.741Z,64.17
2018-03-06T05:26:38.964Z,61.47
2018-03-06T05:29:06.451Z,71.60
2018-03-06T05:31:33.916Z,69.03
2018-03-06T05:34:01.372Z,61.63
2018-03-06T05:36:28.855Z,71.83
2018-03-06T05:38:56.307Z,63.90
2018-03-06T05:41:24.549Z,71.07
2018-03-06T05:43:51.994Z,72.87
2018-03-06T05:46:19.466Z,69.97
2018-03-06T05:48:46.916Z,64.70
2018-03-06T05:51:14.505Z,70.77
2018-03-06T05:53:42.743Z,71.53
2018-03-06T05:56:10.199Z,72.73
2018-03-06T05:58:37.662Z,68.10
2018-03-06T06:01:05.116Z,75.70
2018-03-06T06:03:33.372Z,75.00
2018-03-06T06:06:00.820Z,65.87
2018-03-06T06:08:28.268Z,75.83
2018-03-06T06:10:55.743Z,65.57
2018-03-06T06:13:23.195Z,76.30
2018-03-06T06:15:50.817Z,73.70
2018-03-06T06:18:19.030Z,78.10
2018-03-06T06:20:46.501Z,72.20
2018-03-06T06:23:13.948Z,73.50
2018-03-06T06:25:41.439Z,75.43
2018-03-06T06:28:09.656Z,74.90
2018-03-06T06:30:37.111Z,70.00
2018-03-06T06:33:04.591Z,76.10
2018-03-06T06:35:32.056Z,71.30
2018-03-06T06:37:59.522Z,66.20
2018-03-06T06:40:26.982Z,73.33
2018-03-06T06:42:54.472Z,71.27
2018-03-06T06:45:22.684Z,76.80
2018-03-06T06:47:50.167Z,63.77
2018-03-06T06:50:17.599Z,74.37
2018-03-06T06:52:45.076Z,68.67
2018-03-06T06:55:12.572Z,67.33
2018-03-06T06:57:40.831Z,61.70
2018-03-06T07:00:09.055Z,71.93
2018-03-06T07:02:36.508Z,70.23
2018-03-06T07:05:03.973Z,66.43
2018-03-06T07:07:31.411Z,75.23
2018-03-06T07:09:58.884Z,76.23
2018-03-06T07:12:26.327Z,69.00
2018-03-06T07:14:53.837Z,68.83
2018-03-06T07:17:21.295Z,69.70
2018-03-06T07:19:48.741Z,72.50
2018-03-06T07:22:16.278Z,75.10
2018-03-06T07:24:43.729Z,80.27
2018-03-06T07:27:11.212Z,73.37
2018-03-06T07:29:38.725Z,74.10
2018-03-06T07:32:06.923Z,68.73
2018-03-06T07:34:34.391Z,69.97
2018-03-06T07:37:01.840Z,78.03
2018-03-06T07:39:29.331Z,99.63
2018-03-06T07:41:57.550Z,85.17
2018-03-06T07:44:25.032Z,97.87
2018-03-06T07:46:52.501Z,80.17
2018-03-06T07:49:20.783Z,83.17
2018-03-06T07:51:48.222Z,92.17
2018-03-06T07:54:15.673Z,98.97
2018-03-06T07:56:43.142Z,93.27
2018-03-06T07:59:10.619Z,88.80
2018-03-06T08:01:38.108Z,81.07
2018-03-06T08:04:05.569Z,99.67
2018-03-06T08:06:33.070Z,89.77
2018-03-06T08:09:00.488Z,93.73
2018-03-06T08:11:27.960Z,93.03
2018-03-06T08:13:55.486Z,95.37
2018-03-06T08:16:22.953Z,79.90
2018-03-06T08:18:50.409Z,90.53
2018-03-06T08:21:17.872Z,79.80
2018-03-06T08:23:45.342Z,87.67
2018-03-06T08:26:12.839Z,83.83
2018-03-06T08:28:41.138Z,85.43
2018-03-06T08:31:08.649Z,92.87
2018-03-06T08:33:36.103Z,67.73
2018-03-06T08:36:03.558Z,90.17
2018-03-06T08:38:31.052Z,87.40
2018-03-06T08:40:59.272Z,86.20
2018-03-06T08:43:26.773Z,81.60
2018-03-06T08:45:55.019Z,92.63
2018-03-06T08:48:22.502Z,79.80
2018-03-06T08:50:50.736Z,76.30
2018-03-06T08:53:18.189Z,76.33
2018-03-06T08:55:45.662Z,78.17
2018-03-06T08:58:13.114Z,82.20
2018-03-06T09:00:40.596Z,73.93
2018-03-06T09:03:08.834Z,73.20
2018-03-06T09:05:36.292Z,78.17
2018-03-06T09:08:03.759Z,77.10
2018-03-06T09:10:31.266Z,74.40
2018-03-06T09:12:58.707Z,62.40
2018-03-06T09:15:26.166Z,79.33
2018-03-06T09:17:54.402Z,73.87
2018-03-06T09:20:21.879Z,65.80
2018-03-06T09:22:50.108Z,73.53
2018-03-06T09:25:17.571Z,71.27
2018-03-06T09:27:45.044Z,75.03
2018-03-06T09:30:12.520Z,73.37
2018-03-06T09:32:40.740Z,73.17
2018-03-06T09:35:08.215Z,78.30
2018-03-06T09:37:35.688Z,70.87
2018-03-06T09:40:03.171Z,77.30
2018-03-06T09:42:31.383Z,77.43
2018-03-06T09:44:58.876Z,81.07
2018-03-06T09:47:26.348Z,76.07
2018-03-06T09:49:54.579Z,72.30
2018-03-06T09:52:22.080Z,79.73
2018-03-06T09:54:49.516Z,77.00
2018-03-06T09:57:17.013Z,81.00
2018-03-06T09:59:44.474Z,73.50
2018-03-06T10:02:11.962Z,76.63
2018-03-06T10:04:39.410Z,86.03
2018-03-06T10:07:06.872Z,81.13
2018-03-06T10:09:34.369Z,74.10
2018-03-06T10:12:01.824Z,74.37
2018-03-06T10:14:29.315Z,79.10
2018-03-06T10:16:57.606Z,78.33
2018-03-06T10:19:24.993Z,83.50
2018-03-06T10:21:52.470Z,81.50
2018-03-06T10:24:19.963Z,88.33
2018-03-06T10:26:47.420Z,79.13
2018-03-06T10:29:14.904Z,80.20
2018-03-06T10:31:42.360Z,75.77
2018-03-06T10:34:09.811Z,81.10
2018-03-06T10:36:37.321Z,74.03
2018-03-06T10:39:04.817Z,77.47
2018-03-06T10:41:32.300Z,66.90
2018-03-06T10:43:59.768Z,73.20
2018-03-06T10:46:27.248Z,68.70
2018-03-06T10:48:55.472Z,72.87
2018-03-06T10:51:22.927Z,66.63
2018-03-06T10:53:50.391Z,74.27
2018-03-06T10:56:17.899Z,77.13
2018-03-06T10:58:46.127Z,78.33
2018-03-06T11:01:19.215Z,76.77
2018-03-06T11:03:46.679Z,70.57
2018-03-06T11:06:14.150Z,73.07
2018-03-06T11:08:41.629Z,78.90
2018-03-06T11:11:09.851Z,76.33
2018-03-06T11:13:37.323Z,79.10
2018-03-06T11:16:04.778Z,75.10
2018-03-06T11:18:32.310Z,81.17
2018-03-06T11:21:00.523Z,77.77
2018-03-06T11:23:27.984Z,83.47
2018-03-06T11:25:55.468Z,78.77
2018-03-06T11:28:23.698Z,73.20
2018-03-06T11:30:51.251Z,80.63
2018-03-06T11:33:18.711Z,73.47
2018-03-06T11:35:46.191Z,74.97
2018-03-06T11:38:13.652Z,77.20
2018-03-06T11:40:41.147Z,75.67
2018-03-06T11:43:08.622Z,75.37
2018-03-06T11:45:36.100Z,73.00
2018-03-06T11:48:03.555Z,71.27
2018-03-06T11:50:31.032Z,73.90
2018-03-06T11:52:59.295Z,71.43
2018-03-06T11:55:26.752Z,67.30
2018-03-06T11:57:54.236Z,68.03
2018-03-06T12:00:22.468Z,72.27
2018-03-06T12:02:49.954Z,65.37
2018-03-06T12:05:18.183Z,61.83
2018-03-06T12:07:45.674Z,63.63
2018-03-06T12:10:13.140Z,64.53
2018-03-06T12:12:41.403Z,61.70
2018-03-06T12:15:08.871Z,61.70
2018-03-06T12:17:37.108Z,58.90
2018-03-06T12:20:04.599Z,61.80
2018-03-06T12:22:32.053Z,58.17
2018-03-06T12:25:00.299Z,52.00
2018-03-06T12:27:27.782Z,61.40
2018-03-06T12:29:55.282Z,59.13
2018-03-06T12:32:22.773Z,62.13
2018-03-06T12:34:50.240Z,58.50
2018-03-06T12:37:18.493Z,57.37
2018-03-06T12:39:45.953Z,53.67
2018-03-06T12:42:13.428Z,65.50
2018-03-06T12:44:40.887Z,65.60
2018-03-06T12:47:08.359Z,55.17
2018-03-06T12:49:35.820Z,54.67
2018-03-06T12:52:04.068Z,60.23
2018-03-06T12:54:31.544Z,56.87
2018-03-06T12:56:59.025Z,58.73
2018-03-06T12:59:27.267Z,54.90
2018-03-06T13:01:54.772Z,55.07
2018-03-06T13:04:22.225Z,56.90
2018-03-06T13:06:49.697Z,51.93
2018-03-06T13:09:17.189Z,46.47
2018-03-06T13:11:44.685Z,51.37
2018-03-06T13:14:12.143Z,52.33
2018-03-06T13:16:39.628Z,59.67
2018-03-06T13:19:07.079Z,46.90
2018-03-06T13:21:34.583Z,54.43
2018-03-06T13:24:02.047Z,52.70
2018-03-06T13:26:30.276Z,52.63
2018-03-06T13:28:57.769Z,54.30
2018-03-06T13:31:25.232Z,59.93
2018-03-06T13:33:52.717Z,56.53
2018-03-06T13:36:20.174Z,50.50
2018-03-06T13:38:47.691Z,49.83
2018-03-06T13:41:15.111Z,48.57
2018-03-06T13:43:42.604Z,60.30
2018-03-06T13:46:10.059Z,52.27
2018-03-06T13:48:37.530Z,58.70
2018-03-06T13:51:05.783Z,54.03
2018-03-06T13:53:33.235Z,56.37
2018-03-06T13:56:00.726Z,52.57
2018-03-06T13:58:28.996Z,52.83
2018-03-06T14:00:56.492Z,54.40
2018-03-06T14:03:23.944Z,50.40
2018-03-06T14:05:51.400Z,49.40
2018-03-06T14:08:18.885Z,52.43
2018-03-06T14:10:46.332Z,54.97
2018-03-06T14:13:13.828Z,53.63
2018-03-06T14:15:41.284Z,52.57
2018-03-06T14:18:09.533Z,57.83
2018-03-06T14:20:36.992Z,56.77
2018-03-06T14:23:04.488Z,55.77
2018-03-06T14:25:32.722Z,53.23
2018-03-06T14:28:00.181Z,55.53
2018-03-06T14:30:27.664Z,63.50
2018-03-06T14:32:55.156Z,52.90
2018-03-06T14:35:22.610Z,54.87
2018-03-06T14:37:50.098Z,58.83
2018-03-06T14:40:17.628Z,65.90
2018-03-06T14:42:45.146Z,56.60
2018-03-06T14:45:13.383Z,53.40
2018-03-06T14:47:40.850Z,53.90
2018-03-06T14:50:08.373Z,54.27
2018-03-06T14:52:35.853Z,51.40
2018-03-06T14:55:03.327Z,48.87
2018-03-06T14:57:30.819Z,51.93
2018-03-06T14:59:59.027Z,46.90
2018-03-06T15:02:26.501Z,53.73
2018-03-06T15:04:53.972Z,48.90
2018-03-06T15:07:21.480Z,46.17
2018-03-06T15:09:48.979Z,53.03
2018-03-06T15:12:16.427Z,46.67
2018-03-06T15:14:43.939Z,47.97
2018-03-06T15:17:12.167Z,47.47
2018-03-06T15:19:39.645Z,42.57
2018-03-06T15:22:07.095Z,48.37
2018-03-06T15:24:34.590Z,47.13
2018-03-06T15:27:02.043Z,42.00
2018-03-06T15:29:30.264Z,41.70
2018-03-06T15:31:57.748Z,46.00
2018-03-06T15:34:25.248Z,44.57
2018-03-06T15:36:52.754Z,38.47
2018-03-06T15:39:20.241Z,41.13
2018-03-06T15:41:48.468Z,43.70
2018-03-06T15:44:15.969Z,41.47
2018-03-06T15:46:44.212Z,40.03
2018-03-06T15:49:11.668Z,40.67
2018-03-06T15:51:39.143Z,37.53
2018-03-06T15:54:07.379Z,46.47
2018-03-06T15:56:34.885Z,32.37
2018-03-06T15:59:03.111Z,39.10
2018-03-06T16:01:30.601Z,33.40
2018-03-06T16:03:58.845Z,33.53
2018-03-06T16:06:26.360Z,36.23
2018-03-06T16:08:53.835Z,37.57
2018-03-06T16:11:21.361Z,33.23
2018-03-06T16:13:49.622Z,34.17
2018-03-06T16:16:17.079Z,33.03
2018-03-06T16:18:44.577Z,31.27
2018-03-06T16:21:12.050Z,35.50
2018-03-06T16:23:39.552Z,29.67
2018-03-06T16:26:07.776Z,33.07
2018-03-06T16:28:35.275Z,27.60
2018-03-06T16:31:02.783Z,36.57
2018-03-06T16:33:30.231Z,37.07
2018-03-06T16:35:57.729Z,35.17
2018-03-06T16:38:25.184Z,34.40
2018-03-06T16:40:52.694Z,35.40
2018-03-06T16:43:20.151Z,33.30
2018-03-06T16:45:47.651Z,34.60
2018-03-06T16:48:15.124Z,32.70
2018-03-06T16:50:42.609Z,30.87
2018-03-06T16:53:10.859Z,40.70
2018-03-06T16:55:38.320Z,35.40
2018-03-06T16:58:06.580Z,38.37
2018-03-06T17:00:34.070Z,36.80
2018-03-06T17:03:02.338Z,37.03
2018-03-06T17:05:30.594Z,40.77
2018-03-06T17:07:58.071Z,36.10
2018-03-06T17:10:26.318Z,34.83
2018-03-06T17:12:53.831Z,42.63
2018-03-06T17:15:21.346Z,38.30
2018-03-06T17:17:48.833Z,43.50
2018-03-06T17:20:16.323Z,41.27
2018-03-06T17:22:43.790Z,39.10
2018-03-06T17:25:11.284Z,39.17
2018-03-06T17:27:39.516Z,42.50
2018-03-06T17:30:07.018Z,42.13
2018-03-06T17:32:34.478Z,41.47
2018-03-06T17:35:02.727Z,39.17
2018-03-06T17:37:30.200Z,46.17
2018-03-06T17:39:57.709Z,45.07
2018-03-06T17:42:25.195Z,49.57
2018-03-06T17:44:52.675Z,47.47
2018-03-06T17:47:20.890Z,55.60
2018-03-06T17:49:48.421Z,46.27
2018-03-06T17:52:15.859Z,49.53
2018-03-06T17:54:43.320Z,51.33
2018-03-06T17:57:11.609Z,49.93
2018-03-06T17:59:39.136Z,49.50
2018-03-06T18:02:06.786Z,62.20
2018-03-06T18:04:34.237Z,51.77
2018-03-06T18:07:01.737Z,58.43
2018-03-06T18:09:29.971Z,57.60
2018-03-06T18:11:57.465Z,58.43
2018-03-06T18:14:25.712Z,58.27
2018-03-06T18:16:53.194Z,58.53
2018-03-06T18:19:21.415Z,66.77
2018-03-06T18:21:48.876Z,62.17
2018-03-06T18:24:16.372Z,64.40
2018-03-06T18:26:44.612Z,69.57
2018-03-06T18:29:12.095Z,64.70
2018-03-06T18:31:39.570Z,64.40
2018-03-06T18:34:07.846Z,66.37
2018-03-06T18:36:36.092Z,67.47
2018-03-06T18:39:03.620Z,68.43
2018-03-06T18:41:31.079Z,64.60
2018-03-06T18:43:58.580Z,72.80
2018-03-06T18:46:26.813Z,65.57
2018-03-06T18:48:55.124Z,60.87
2018-03-06T18:51:22.639Z,62.87
2018-03-06T18:53:50.100Z,60.57
2018-03-06T18:56:17.576Z,60.73
2018-03-06T18:58:45.056Z,60.77
2018-03-06T19:04:28.854Z,59.10
2018-03-06T19:07:14.085Z,57.00
2018-03-06T19:09:42.324Z,53.10
2018-03-06T19:12:09.811Z,55.33
2018-03-06T19:14:37.293Z,56.70
2018-03-06T19:17:05.526Z,60.70
2018-03-06T19:19:32.992Z,58.50
2018-03-06T19:22:00.503Z,59.77
2018-03-06T19:24:27.974Z,55.10
2018-03-06T19:26:55.478Z,55.50
2018-03-06T19:29:23.042Z,60.20
2018-03-06T19:31:50.504Z,59.83
2018-03-06T19:34:18.790Z,58.30
2018-03-06T19:36:46.992Z,48.57
2018-03-06T19:39:14.506Z,46.43
2018-03-06T19:41:41.989Z,51.40
2018-03-06T19:44:09.476Z,59.83
2018-03-06T19:46:37.024Z,53.03
2018-03-06T19:49:04.733Z,58.27
2018-03-06T19:51:32.263Z,53.83
2018-03-06T19:53:59.732Z,51.90
2018-03-06T19:56:27.516Z,50.60
2018-03-06T19:58:54.984Z,51.27
2018-03-06T20:01:23.366Z,58.70
2018-03-06T20:03:51.103Z,57.20
2018-03-06T20:06:19.491Z,54.50
2018-03-06T20:08:47.114Z,54.33
2018-03-06T20:11:14.556Z,48.77
2018-03-06T20:13:42.397Z,54.07
2018-03-06T20:16:10.037Z,52.73
2018-03-06T20:18:37.505Z,56.33
2018-03-06T20:21:05.091Z,50.63
2018-03-06T20:23:32.561Z,50.90
2018-03-06T20:26:00.046Z,53.60
2018-03-06T20:28:27.523Z,54.23
2018-03-06T20:31:01.410Z,51.87
2018-03-06T20:33:28.881Z,46.80
2018-03-06T20:35:57.125Z,52.23
2018-03-06T20:38:30.183Z,52.83
2018-03-06T20:40:57.717Z,59.20
2018-03-06T20:43:25.912Z,53.63
2018-03-06T20:45:59.020Z,50.60
2018-03-06T20:48:26.488Z,45.17
2018-03-06T20:50:53.988Z,42.90
2018-03-06T20:53:27.907Z,51.60
2018-03-06T20:55:55.422Z,54.00
2018-03-06T20:58:23.107Z,48.10
2018-03-06T21:00:51.337Z,46.83
2018-03-06T21:03:18.816Z,45.67
2018-03-06T21:05:46.294Z,50.57
2018-03-06T21:08:14.588Z,44.27
2018-03-06T21:10:42.064Z,46.57
2018-03-06T21:13:09.536Z,57.60
2018-03-06T21:15:37.010Z,47.90
2018-03-06T21:18:04.492Z,49.40
2018-03-06T21:20:32.710Z,52.33
2018-03-06T21:23:00.228Z,50.70
2018-03-06T21:25:28.479Z,55.37
2018-03-06T21:27:56.720Z,52.93
2018-03-06T21:30:24.209Z,50.10
2018-03-06T21:32:51.702Z,50.10
2018-03-06T21:35:20.008Z,50.10
2018-03-06T21:37:47.494Z,50.67
2018-03-06T21:40:14.967Z,56.87
2018-03-06T21:42:43.219Z,57.53
2018-03-06T21:45:10.748Z,53.17
2018-03-06T21:47:38.197Z,51.67
2018-03-06T21:50:05.696Z,49.90
2018-03-06T21:52:33.159Z,51.83
2018-03-06T21:55:00.693Z,60.13
2018-03-06T21:57:28.177Z,53.13
2018-03-06T21:59:55.625Z,51.27
2018-03-06T22:02:23.157Z,51.77
2018-03-06T22:04:50.604Z,59.37
2018-03-06T22:07:18.070Z,52.30
2018-03-06T22:09:45.563Z,57.90
2018-03-06T22:12:13.038Z,53.87
2018-03-06T22:14:41.285Z,54.80
2018-03-06T22:17:10.299Z,57.27
2018-03-06T22:19:38.552Z,62.20
2018-03-06T22:22:05.993Z,55.50
2018-03-06T22:24:33.480Z,59.50
2018-03-06T22:27:00.930Z,49.63
2018-03-06T22:29:29.192Z,60.00
2018-03-06T22:31:56.668Z,60.53
2018-03-06T22:34:24.890Z,54.83
2018-03-06T22:36:52.410Z,53.47
2018-03-06T22:39:20.631Z,58.23
2018-03-06T22:41:48.119Z,62.67
2018-03-06T22:44:15.583Z,58.67
2018-03-06T22:46:43.067Z,61.60
2018-03-06T22:49:10.513Z,57.70
2018-03-06T22:51:38.024Z,60.60
2018-03-06T22:54:05.475Z,57.10
2018-03-06T22:56:32.941Z,64.97
2018-03-06T22:59:00.395Z,59.20
2018-03-06T23:01:27.927Z,57.50
2018-03-06T23:03:55.386Z,62.57
2018-03-06T23:06:22.843Z,50.37
2018-03-06T23:08:50.347Z,52.63
2018-03-06T23:11:18.558Z,64.30
2018-03-06T23:13:46.080Z,56.23
2018-03-06T23:16:13.552Z,61.53
2018-03-06T23:18:41.787Z,64.50
2018-03-06T23:21:09.279Z,62.87
2018-03-06T23:23:37.507Z,65.90
2018-03-06T23:26:04.976Z,62.70
2018-03-06T23:28:32.428Z,59.60
2018-03-06T23:30:59.920Z,60.97
2018-03-06T23:33:28.137Z,65.20
2018-03-06T23:35:55.652Z,60.43
2018-03-06T23:38:23.880Z,59.43
2018-03-06T23:40:51.332Z,57.40
2018-03-06T23:43:18.808Z,42.60
2018-03-06T23:45:47.050Z,44.07
2018-03-06T23:48:14.535Z,36.63
2018-03-06T23:50:41.976Z,46.23
2018-03-06T23:53:09.467Z,41.40
2018-03-06T23:55:36.923Z,39.30
2018-03-06T23:58:04.399Z,44.77
